sensor_id;sensor_type;location;lat;lon;timestamp;pressure;altitude;pressure_sealevel;temperature;humidity
61484;BME280;47349;55.640;37.692;2023-03-23T00:00:40;99042.28;;;5.34;73.84
61484;BME280;47349;55.640;37.692;2023-03-23T00:03:06;99038.94;;;5.32;73.34
61484;BME280;47349;55.640;37.692;2023-03-23T00:05:32;99039.25;;;5.29;73.42
61484;BME280;47349;55.640;37.692;2023-03-23T00:07:58;99042.28;;;5.34;73.32
61484;BME280;47349;55.640;37.692;2023-03-23T00:10:27;99031.47;;;5.35;73.77
61484;BME280;47349;55.640;37.692;2023-03-23T00:12:53;99032.47;;;5.34;73.46
61484;BME280;47349;55.640;37.692;2023-03-23T00:15:18;99033.31;;;5.35;74.01
61484;BME280;47349;55.640;37.692;2023-03-23T00:17:44;99032.00;;;5.39;73.73
61484;BME280;47349;55.640;37.692;2023-03-23T00:20:10;99027.69;;;5.38;74.11
61484;BME280;47349;55.640;37.692;2023-03-23T00:22:38;99029.88;;;5.43;74.07
61484;BME280;47349;55.640;37.692;2023-03-23T00:25:04;99020.91;;;5.44;73.21
61484;BME280;47349;55.640;37.692;2023-03-23T00:27:30;99027.88;;;5.45;73.70
61484;BME280;47349;55.640;37.692;2023-03-23T00:29:56;99027.88;;;5.45;73.47
61484;BME280;47349;55.640;37.692;2023-03-23T00:32:23;99020.06;;;5.43;73.71
61484;BME280;47349;55.640;37.692;2023-03-23T00:34:56;99024.22;;;5.46;73.44
61484;BME280;47349;55.640;37.692;2023-03-23T00:37:24;99017.94;;;5.47;73.32
61484;BME280;47349;55.640;37.692;2023-03-23T00:39:50;99020.59;;;5.47;73.30
61484;BME280;47349;55.640;37.692;2023-03-23T00:42:17;99014.75;;;5.43;73.39
61484;BME280;47349;55.640;37.692;2023-03-23T00:44:43;99017.56;;;5.41;73.24
61484;BME280;47349;55.640;37.692;2023-03-23T00:47:09;99011.09;;;5.44;73.37
61484;BME280;47349;55.640;37.692;2023-03-23T00:49:37;99013.09;;;5.42;73.31
61484;BME280;47349;55.640;37.692;2023-03-23T00:52:03;98999.81;;;5.42;73.95
61484;BME280;47349;55.640;37.692;2023-03-23T00:54:30;98999.47;;;5.45;73.41
61484;BME280;47349;55.640;37.692;2023-03-23T00:56:56;98998.31;;;5.48;73.49
61484;BME280;47349;55.640;37.692;2023-03-23T00:59:21;98993.00;;;5.48;73.54
61484;BME280;47349;55.640;37.692;2023-03-23T01:01:49;98991.50;;;5.45;73.37
61484;BME280;47349;55.640;37.692;2023-03-23T01:04:15;99001.13;;;5.46;74.16
61484;BME280;47349;55.640;37.692;2023-03-23T01:06:42;98998.81;;;5.43;74.21
61484;BME280;47349;55.640;37.692;2023-03-23T01:09:09;99003.78;;;5.46;73.52
61484;BME280;47349;55.640;37.692;2023-03-23T01:11:35;99000.78;;;5.41;73.66
61484;BME280;47349;55.640;37.692;2023-03-23T01:14:04;99003.28;;;5.43;74.53
61484;BME280;47349;55.640;37.692;2023-03-23T01:16:30;99001.09;;;5.38;74.15
61484;BME280;47349;55.640;37.692;2023-03-23T01:18:56;98995.78;;;5.38;74.65
61484;BME280;47349;55.640;37.692;2023-03-23T01:21:22;98993.63;;;5.33;74.09
61484;BME280;47349;55.640;37.692;2023-03-23T01:23:51;98990.25;;;5.31;75.08
61484;BME280;47349;55.640;37.692;2023-03-23T01:26:18;98990.25;;;5.31;74.71
61484;BME280;47349;55.640;37.692;2023-03-23T01:28:44;98988.94;;;5.27;74.85
61484;BME280;47349;55.640;37.692;2023-03-23T01:31:11;98991.75;;;5.26;75.31
61484;BME280;47349;55.640;37.692;2023-03-23T01:33:38;98980.44;;;5.24;75.14
61484;BME280;47349;55.640;37.692;2023-03-23T01:36:05;98973.16;;;5.26;75.29
61484;BME280;47349;55.640;37.692;2023-03-23T01:38:32;98976.50;;;5.28;75.65
61484;BME280;47349;55.640;37.692;2023-03-23T01:40:58;98964.50;;;5.24;75.58
61484;BME280;47349;55.640;37.692;2023-03-23T01:43:25;98961.16;;;5.22;75.69
61484;BME280;47349;55.640;37.692;2023-03-23T01:45:51;98956.72;;;5.22;76.44
61484;BME280;47349;55.640;37.692;2023-03-23T01:48:18;98968.16;;;5.23;75.98
61484;BME280;47349;55.640;37.692;2023-03-23T01:50:50;98965.81;;;5.20;75.83
61484;BME280;47349;55.640;37.692;2023-03-23T01:53:18;98965.50;;;5.23;76.81
61484;BME280;47349;55.640;37.692;2023-03-23T01:55:44;98959.38;;;5.22;76.58
61484;BME280;47349;55.640;37.692;2023-03-23T01:58:14;98957.00;;;5.19;76.78
61484;BME280;47349;55.640;37.692;2023-03-23T02:00:40;98955.34;;;5.18;76.32
61484;BME280;47349;55.640;37.692;2023-03-23T02:03:08;98948.88;;;5.21;76.02
61484;BME280;47349;55.640;37.692;2023-03-23T02:05:37;98950.03;;;5.18;76.51
61484;BME280;47349;55.640;37.692;2023-03-23T02:08:10;98938.59;;;5.18;76.21
61484;BME280;47349;55.640;37.692;2023-03-23T02:10:38;98938.72;;;5.16;76.72
61484;BME280;47349;55.640;37.692;2023-03-23T02:13:05;98942.22;;;5.16;76.52
61484;BME280;47349;55.640;37.692;2023-03-23T02:15:39;98937.06;;;5.15;76.60
61484;BME280;47349;55.640;37.692;2023-03-23T02:18:13;98948.53;;;5.15;76.70
61484;BME280;47349;55.640;37.692;2023-03-23T02:21:01;98946.88;;;5.14;76.61
61484;BME280;47349;55.640;37.692;2023-03-23T02:29:03;98958.78;;;5.10;77.13
61484;BME280;47349;55.640;37.692;2023-03-23T02:32:07;98957.78;;;5.11;77.32
61484;BME280;47349;55.640;37.692;2023-03-23T02:34:29;98957.31;;;5.08;77.13
61484;BME280;47349;55.640;37.692;2023-03-23T02:39:23;98949.16;;;5.09;77.16
61484;BME280;47349;55.640;37.692;2023-03-23T02:41:53;98950.00;;;5.10;77.19
61484;BME280;47349;55.640;37.692;2023-03-23T02:44:22;98937.03;;;5.07;77.73
61484;BME280;47349;55.640;37.692;2023-03-23T02:46:51;98940.03;;;5.04;77.31
61484;BME280;47349;55.640;37.692;2023-03-23T02:49:18;98942.16;;;5.00;78.13
61484;BME280;47349;55.640;37.692;2023-03-23T02:51:46;98941.50;;;4.98;78.10
61484;BME280;47349;55.640;37.692;2023-03-23T02:54:12;98948.47;;;4.99;78.21
61484;BME280;47349;55.640;37.692;2023-03-23T02:56:39;98940.44;;;4.91;78.39
61484;BME280;47349;55.640;37.692;2023-03-23T02:59:12;98946.06;;;4.88;79.14
61484;BME280;47349;55.640;37.692;2023-03-23T03:04:14;98949.56;;;4.88;79.11
61484;BME280;47349;55.640;37.692;2023-03-23T03:12:16;98936.75;;;4.84;80.51
61484;BME280;47349;55.640;37.692;2023-03-23T03:15:21;98939.72;;;4.81;80.24
61484;BME280;47349;55.640;37.692;2023-03-23T03:17:41;98944.19;;;4.80;80.21
61484;BME280;47349;55.640;37.692;2023-03-23T03:20:12;98938.06;;;4.80;81.00
61484;BME280;47349;55.640;37.692;2023-03-23T03:22:40;98934.72;;;4.78;81.27
61484;BME280;47349;55.640;37.692;2023-03-23T03:25:10;98929.75;;;4.75;80.86
61484;BME280;47349;55.640;37.692;2023-03-23T03:27:47;98942.03;;;4.76;81.49
61484;BME280;47349;55.640;37.692;2023-03-23T03:30:21;98947.50;;;4.74;81.99
61484;BME280;47349;55.640;37.692;2023-03-23T03:32:51;98945.66;;;4.75;81.76
61484;BME280;47349;55.640;37.692;2023-03-23T03:35:23;98944.59;;;4.68;82.52
61484;BME280;47349;55.640;37.692;2023-03-23T03:38:05;98944.97;;;4.73;82.73
61484;BME280;47349;55.640;37.692;2023-03-23T03:40:52;98943.00;;;4.75;82.26
61484;BME280;47349;55.640;37.692;2023-03-23T03:43:20;98923.91;;;4.71;82.23
61484;BME280;47349;55.640;37.692;2023-03-23T03:46:41;98937.34;;;4.70;83.18
61484;BME280;47349;55.640;37.692;2023-03-23T03:49:40;98935.47;;;4.62;83.69
61484;BME280;47349;55.640;37.692;2023-03-23T03:52:16;98934.09;;;4.58;84.51
61484;BME280;47349;55.640;37.692;2023-03-23T03:54:45;98930.63;;;4.57;84.41
61484;BME280;47349;55.640;37.692;2023-03-23T03:57:25;98934.78;;;4.60;84.33
61484;BME280;47349;55.640;37.692;2023-03-23T04:00:19;98935.47;;;4.62;84.57
61484;BME280;47349;55.640;37.692;2023-03-23T04:02:49;98936.63;;;4.59;84.70
61484;BME280;47349;55.640;37.692;2023-03-23T04:05:47;98926.00;;;4.59;85.63
61484;BME280;47349;55.640;37.692;2023-03-23T04:08:23;98930.44;;;4.59;85.76
61484;BME280;47349;55.640;37.692;2023-03-23T04:11:27;98921.28;;;4.53;85.77
61484;BME280;47349;55.640;37.692;2023-03-23T04:14:10;98921.47;;;4.52;85.96
61484;BME280;47349;55.640;37.692;2023-03-23T04:17:00;98920.63;;;4.51;86.65
61484;BME280;47349;55.640;37.692;2023-03-23T04:19:31;98917.81;;;4.53;86.37
61484;BME280;47349;55.640;37.692;2023-03-23T04:22:03;98913.97;;;4.47;86.73
61484;BME280;47349;55.640;37.692;2023-03-23T04:24:53;98921.63;;;4.50;87.20
61484;BME280;47349;55.640;37.692;2023-03-23T04:27:20;98914.97;;;4.46;87.34
61484;BME280;47349;55.640;37.692;2023-03-23T04:29:55;98911.31;;;4.47;87.22
61484;BME280;47349;55.640;37.692;2023-03-23T04:32:46;98914.34;;;4.52;87.15
61484;BME280;47349;55.640;37.692;2023-03-23T04:35:37;98914.03;;;4.55;87.27
61484;BME280;47349;55.640;37.692;2023-03-23T04:38:44;98899.06;;;4.54;87.32
61484;BME280;47349;55.640;37.692;2023-03-23T04:42:53;98906.56;;;4.59;87.48
61484;BME280;47349;55.640;37.692;2023-03-23T04:45:41;98905.06;;;4.56;87.99
61484;BME280;47349;55.640;37.692;2023-03-23T04:48:32;98897.78;;;4.58;87.98
61484;BME280;47349;55.640;37.692;2023-03-23T04:51:57;98894.88;;;4.70;87.86
61484;BME280;47349;55.640;37.692;2023-03-23T04:54:42;98892.41;;;4.76;87.21
61484;BME280;47349;55.640;37.692;2023-03-23T04:57:15;98901.50;;;4.74;86.32
61484;BME280;47349;55.640;37.692;2023-03-23T05:00:27;98900.56;;;4.83;87.25
61484;BME280;47349;55.640;37.692;2023-03-23T05:03:07;98891.63;;;4.84;86.90
61484;BME280;47349;55.640;37.692;2023-03-23T05:06:00;98902.59;;;4.89;86.09
61484;BME280;47349;55.640;37.692;2023-03-23T05:08:39;98899.94;;;4.89;85.86
61484;BME280;47349;55.640;37.692;2023-03-23T05:11:52;98904.44;;;4.97;86.23
61484;BME280;47349;55.640;37.692;2023-03-23T05:14:53;98907.63;;;5.00;85.96
61484;BME280;47349;55.640;37.692;2023-03-23T05:17:47;98902.34;;;5.08;85.89
61484;BME280;47349;55.640;37.692;2023-03-23T05:20:25;98906.34;;;5.12;84.74
61484;BME280;47349;55.640;37.692;2023-03-23T05:23:19;98911.69;;;5.21;85.17
61484;BME280;47349;55.640;37.692;2023-03-23T05:26:15;98912.03;;;5.26;84.30
61484;BME280;47349;55.640;37.692;2023-03-23T05:28:52;98917.03;;;5.29;83.93
61484;BME280;47349;55.640;37.692;2023-03-23T05:31:26;98917.22;;;5.35;84.23
61484;BME280;47349;55.640;37.692;2023-03-23T05:34:30;98894.97;;;5.36;83.91
61484;BME280;47349;55.640;37.692;2023-03-23T05:37:06;98906.63;;;5.44;83.41
61484;BME280;47349;55.640;37.692;2023-03-23T05:39:49;98902.78;;;5.46;83.89
61484;BME280;47349;55.640;37.692;2023-03-23T05:42:47;98905.81;;;5.51;83.16
61484;BME280;47349;55.640;37.692;2023-03-23T05:46:26;98905.00;;;5.67;82.97
61484;BME280;47349;55.640;37.692;2023-03-23T05:48:56;98915.66;;;5.67;82.50
61484;BME280;47349;55.640;37.692;2023-03-23T05:51:36;98912.16;;;5.75;82.22
61484;BME280;47349;55.640;37.692;2023-03-23T05:54:04;98913.50;;;5.79;81.80
61484;BME280;47349;55.640;37.692;2023-03-23T05:56:33;98915.34;;;5.86;81.38
61484;BME280;47349;55.640;37.692;2023-03-23T05:59:24;98922.53;;;5.94;81.37
61484;BME280;47349;55.640;37.692;2023-03-23T06:01:53;98915.88;;;5.98;81.25
61484;BME280;47349;55.640;37.692;2023-03-23T06:04:24;98914.56;;;6.02;80.97
61484;BME280;47349;55.640;37.692;2023-03-23T06:07:01;98906.25;;;6.05;80.50
61484;BME280;47349;55.640;37.692;2023-03-23T06:09:51;98900.44;;;6.10;80.89
61484;BME280;47349;55.640;37.692;2023-03-23T06:12:28;98901.25;;;6.10;80.15
61484;BME280;47349;55.640;37.692;2023-03-23T06:15:43;98899.91;;;6.23;79.54
61484;BME280;47349;55.640;37.692;2023-03-23T06:18:17;98902.06;;;6.27;80.05
61484;BME280;47349;55.640;37.692;2023-03-23T06:21:03;98914.19;;;6.38;79.33
61484;BME280;47349;55.640;37.692;2023-03-23T06:24:02;98909.88;;;6.45;79.34
61484;BME280;47349;55.640;37.692;2023-03-23T06:26:59;98915.22;;;6.53;79.16
61484;BME280;47349;55.640;37.692;2023-03-23T06:29:28;98914.84;;;6.64;78.81
61484;BME280;47349;55.640;37.692;2023-03-23T06:31:56;98906.69;;;6.66;78.50
61484;BME280;47349;55.640;37.692;2023-03-23T06:34:29;98904.84;;;6.75;78.02
61484;BME280;47349;55.640;37.692;2023-03-23T06:37:23;98908.81;;;6.79;77.75
61484;BME280;47349;55.640;37.692;2023-03-23T06:40:25;98898.97;;;6.87;77.59
61484;BME280;47349;55.640;37.692;2023-03-23T06:43:08;98900.44;;;6.98;77.58
61484;BME280;47349;55.640;37.692;2023-03-23T06:45:59;98899.63;;;6.98;76.79
61484;BME280;47349;55.640;37.692;2023-03-23T06:48:40;98899.44;;;6.91;76.90
61484;BME280;47349;55.640;37.692;2023-03-23T06:51:09;98902.91;;;7.08;76.66
61484;BME280;47349;55.640;37.692;2023-03-23T06:53:38;98911.41;;;7.11;77.09
61484;BME280;47349;55.640;37.692;2023-03-23T06:56:08;98898.31;;;7.25;76.58
61484;BME280;47349;55.640;37.692;2023-03-23T06:58:37;98901.13;;;7.31;75.65
61484;BME280;47349;55.640;37.692;2023-03-23T07:01:07;98892.25;;;7.39;75.32
61484;BME280;47349;55.640;37.692;2023-03-23T07:03:43;98890.38;;;7.47;74.92
61484;BME280;47349;55.640;37.692;2023-03-23T07:06:44;98883.50;;;7.53;74.25
61484;BME280;47349;55.640;37.692;2023-03-23T07:10:27;98882.50;;;7.54;74.22
61484;BME280;47349;55.640;37.692;2023-03-23T07:13:27;98870.72;;;7.48;73.90
61484;BME280;47349;55.640;37.692;2023-03-23T07:16:16;98881.84;;;7.52;73.48
61484;BME280;47349;55.640;37.692;2023-03-23T07:19:08;98879.97;;;7.61;73.68
61484;BME280;47349;55.640;37.692;2023-03-23T07:22:42;98880.56;;;7.71;73.01
61484;BME280;47349;55.640;37.692;2023-03-23T07:25:30;98882.19;;;7.80;72.69
61484;BME280;47349;55.640;37.692;2023-03-23T07:28:01;98880.59;;;7.94;72.55
61484;BME280;47349;55.640;37.692;2023-03-23T07:30:38;98872.03;;;7.98;71.81
61484;BME280;47349;55.640;37.692;2023-03-23T07:33:43;98873.50;;;8.01;71.35
61484;BME280;47349;55.640;37.692;2023-03-23T07:36:16;98871.56;;;7.95;71.06
61484;BME280;47349;55.640;37.692;2023-03-23T07:39:01;98869.09;;;7.93;71.20
61484;BME280;47349;55.640;37.692;2023-03-23T07:41:31;98867.06;;;7.95;70.93
61484;BME280;47349;55.640;37.692;2023-03-23T07:44:29;98867.00;;;8.04;70.91
61484;BME280;47349;55.640;37.692;2023-03-23T07:47:19;98860.59;;;8.13;70.71
61484;BME280;47349;55.640;37.692;2023-03-23T07:50:44;98868.22;;;8.16;70.15
61484;BME280;47349;55.640;37.692;2023-03-23T07:53:20;98868.34;;;8.22;70.10
61484;BME280;47349;55.640;37.692;2023-03-23T07:57:39;98853.59;;;8.27;69.47
61484;BME280;47349;55.640;37.692;2023-03-23T08:00:41;98849.22;;;8.34;69.18
61484;BME280;47349;55.640;37.692;2023-03-23T08:04:56;98849.72;;;8.37;68.42
61484;BME280;47349;55.640;37.692;2023-03-23T08:08:15;98851.09;;;8.48;68.74
61484;BME280;47349;55.640;37.692;2023-03-23T08:12:09;98840.63;;;8.61;68.20
61484;BME280;47349;55.640;37.692;2023-03-23T08:15:14;98842.81;;;8.72;67.14
61484;BME280;47349;55.640;37.692;2023-03-23T08:18:15;98831.84;;;8.67;66.69
61484;BME280;47349;55.640;37.692;2023-03-23T08:21:04;98835.81;;;8.71;66.60
61484;BME280;47349;55.640;37.692;2023-03-23T08:23:59;98839.94;;;8.74;66.71
61484;BME280;47349;55.640;37.692;2023-03-23T08:27:45;98831.94;;;8.89;66.60
61484;BME280;47349;55.640;37.692;2023-03-23T08:31:32;98831.84;;;8.97;65.56
61484;BME280;47349;55.640;37.692;2023-03-23T08:34:33;98826.09;;;9.15;64.97
61484;BME280;47349;55.640;37.692;2023-03-23T08:38:16;98822.78;;;9.13;64.55
61484;BME280;47349;55.640;37.692;2023-03-23T08:41:32;98811.34;;;9.19;63.93
61484;BME280;47349;55.640;37.692;2023-03-23T08:44:44;98814.09;;;9.25;64.34
61484;BME280;47349;55.640;37.692;2023-03-23T08:47:55;98811.31;;;9.34;63.75
61484;BME280;47349;55.640;37.692;2023-03-23T08:51:05;98816.78;;;9.47;63.22
61484;BME280;47349;55.640;37.692;2023-03-23T08:54:50;98797.13;;;9.55;62.83
61484;BME280;47349;55.640;37.692;2023-03-23T08:58:02;98808.88;;;9.60;61.98
61484;BME280;47349;55.640;37.692;2023-03-23T09:01:11;98801.13;;;9.65;62.58
61484;BME280;47349;55.640;37.692;2023-03-23T09:04:29;98783.97;;;9.81;62.29
61484;BME280;47349;55.640;37.692;2023-03-23T09:08:21;98785.25;;;9.85;61.57
61484;BME280;47349;55.640;37.692;2023-03-23T09:11:52;98770.13;;;9.99;61.25
61484;BME280;47349;55.640;37.692;2023-03-23T09:14:32;98761.72;;;10.02;61.65
61484;BME280;47349;55.640;37.692;2023-03-23T09:17:22;98760.91;;;10.08;60.47
61484;BME280;47349;55.640;37.692;2023-03-23T09:19:53;98759.50;;;10.12;60.65
61484;BME280;47349;55.640;37.692;2023-03-23T09:22:26;98756.59;;;10.07;59.51
61484;BME280;47349;55.640;37.692;2023-03-23T09:25:47;98762.78;;;10.08;59.08
61484;BME280;47349;55.640;37.692;2023-03-23T09:28:31;98751.25;;;10.07;60.54
61484;BME280;47349;55.640;37.692;2023-03-23T09:31:05;98749.19;;;10.09;59.40
61484;BME280;47349;55.640;37.692;2023-03-23T09:33:55;98750.94;;;10.23;58.94
61484;BME280;47349;55.640;37.692;2023-03-23T09:36:46;98749.56;;;10.34;58.53
61484;BME280;47349;55.640;37.692;2023-03-23T09:39:39;98728.94;;;10.28;58.33
61484;BME280;47349;55.640;37.692;2023-03-23T09:42:24;98740.09;;;10.32;58.62
61484;BME280;47349;55.640;37.692;2023-03-23T09:45:28;98742.38;;;10.35;57.95
61484;BME280;47349;55.640;37.692;2023-03-23T09:50:48;98737.66;;;10.37;57.95
61484;BME280;47349;55.640;37.692;2023-03-23T09:53:36;98735.22;;;10.42;57.52
61484;BME280;47349;55.640;37.692;2023-03-23T09:56:18;98721.22;;;10.46;58.36
61484;BME280;47349;55.640;37.692;2023-03-23T09:58:50;98722.13;;;10.67;57.99
61484;BME280;47349;55.640;37.692;2023-03-23T10:01:27;98718.47;;;10.74;56.81
61484;BME280;47349;55.640;37.692;2023-03-23T10:04:27;98682.97;;;10.59;56.49
61484;BME280;47349;55.640;37.692;2023-03-23T10:07:26;98691.00;;;10.59;57.23
61484;BME280;47349;55.640;37.692;2023-03-23T10:11:02;98687.91;;;10.62;56.84
61484;BME280;47349;55.640;37.692;2023-03-23T10:19:38;98682.38;;;10.70;55.87
61484;BME280;47349;55.640;37.692;2023-03-23T10:22:11;98687.34;;;10.73;55.95
61484;BME280;47349;55.640;37.692;2023-03-23T10:24:43;98677.84;;;10.77;55.50
61484;BME280;47349;55.640;37.692;2023-03-23T10:27:19;98676.41;;;10.81;55.73
61484;BME280;47349;55.640;37.692;2023-03-23T10:29:53;98676.41;;;10.81;55.41
61484;BME280;47349;55.640;37.692;2023-03-23T10:32:43;98682.44;;;10.90;55.46
61484;BME280;47349;55.640;37.692;2023-03-23T10:35:25;98681.63;;;11.03;56.05
61484;BME280;47349;55.640;37.692;2023-03-23T10:38:05;98675.44;;;11.09;54.96
61484;BME280;47349;55.640;37.692;2023-03-23T10:40:43;98672.16;;;11.20;54.80
61484;BME280;47349;55.640;37.692;2023-03-23T10:43:11;98674.84;;;11.20;54.83
61484;BME280;47349;55.640;37.692;2023-03-23T10:49:19;98670.94;;;11.49;54.42
61484;BME280;47349;55.640;37.692;2023-03-23T10:51:50;98657.53;;;11.56;53.63
61484;BME280;47349;55.640;37.692;2023-03-23T10:54:25;98665.19;;;11.66;53.92
61484;BME280;47349;55.640;37.692;2023-03-23T10:56:52;98663.94;;;11.75;53.41
61484;BME280;47349;55.640;37.692;2023-03-23T10:59:27;98674.22;;;11.78;52.97
61484;BME280;47349;55.640;37.692;2023-03-23T11:01:58;98670.31;;;11.67;52.61
61484;BME280;47349;55.640;37.692;2023-03-23T11:04:25;98664.75;;;11.75;53.01
61484;BME280;47349;55.640;37.692;2023-03-23T11:06:53;98676.53;;;11.88;52.93
61484;BME280;47349;55.640;37.692;2023-03-23T11:09:33;98664.75;;;11.89;51.46
61484;BME280;47349;55.640;37.692;2023-03-23T11:11:59;98667.03;;;11.92;52.20
61484;BME280;47349;55.640;37.692;2023-03-23T11:14:28;98661.81;;;12.10;51.61
61484;BME280;47349;55.640;37.692;2023-03-23T11:16:59;98663.47;;;12.11;51.42
61484;BME280;47349;55.640;37.692;2023-03-23T11:19:31;98658.00;;;12.38;51.07
61484;BME280;47349;55.640;37.692;2023-03-23T11:22:14;98655.94;;;12.40;50.49
61484;BME280;47349;55.640;37.692;2023-03-23T11:24:43;98654.72;;;12.35;49.45
61484;BME280;47349;55.640;37.692;2023-03-23T11:27:10;98653.94;;;12.28;49.97
61484;BME280;47349;55.640;37.692;2023-03-23T11:29:37;98641.09;;;12.30;49.82
61484;BME280;47349;55.640;37.692;2023-03-23T11:32:10;98653.75;;;12.17;49.65
61484;BME280;47349;55.640;37.692;2023-03-23T11:34:45;98656.88;;;12.14;50.00
61484;BME280;47349;55.640;37.692;2023-03-23T11:48:15;98659.50;;;12.78;48.54
61484;BME280;47349;55.640;37.692;2023-03-23T11:50:47;98650.78;;;12.76;48.40
61484;BME280;47349;55.640;37.692;2023-03-23T11:58:23;98661.09;;;12.48;48.73
61484;BME280;47349;55.640;37.692;2023-03-23T12:00:56;98663.78;;;12.48;48.77
61484;BME280;47349;55.640;37.692;2023-03-23T12:03:23;98662.97;;;12.41;49.30
61484;BME280;47349;55.640;37.692;2023-03-23T12:08:22;98660.75;;;12.24;49.73
61484;BME280;47349;55.640;37.692;2023-03-23T12:16:26;98650.56;;;12.40;49.63
61484;BME280;47349;55.640;37.692;2023-03-23T12:24:24;98644.97;;;12.48;49.53
61484;BME280;47349;55.640;37.692;2023-03-23T12:27:05;98642.19;;;12.68;49.00
61484;BME280;47349;55.640;37.692;2023-03-23T12:32:53;98638.72;;;12.92;48.56
61484;BME280;47349;55.640;37.692;2023-03-23T12:43:17;98634.06;;;12.74;49.05
61484;BME280;47349;55.640;37.692;2023-03-23T12:48:42;98634.81;;;12.50;49.98
61484;BME280;47349;55.640;37.692;2023-03-23T12:54:10;98629.03;;;12.53;49.78
61484;BME280;47349;55.640;37.692;2023-03-23T12:56:46;98629.22;;;12.51;49.95
61484;BME280;47349;55.640;37.692;2023-03-23T13:02:25;98625.56;;;12.32;50.47
61484;BME280;47349;55.640;37.692;2023-03-23T13:05:43;98622.88;;;12.32;50.67
61484;BME280;47349;55.640;37.692;2023-03-23T13:08:44;98628.53;;;12.24;50.81
61484;BME280;47349;55.640;37.692;2023-03-23T13:11:36;98625.84;;;12.18;51.22
61484;BME280;47349;55.640;37.692;2023-03-23T13:17:35;98612.66;;;12.03;51.55
61484;BME280;47349;55.640;37.692;2023-03-23T13:23:54;98598.44;;;11.96;51.60
61484;BME280;47349;55.640;37.692;2023-03-23T13:26:36;98592.00;;;12.10;51.69
61484;BME280;47349;55.640;37.692;2023-03-23T13:29:18;98594.50;;;12.05;51.71
61484;BME280;47349;55.640;37.692;2023-03-23T13:31:46;98588.72;;;12.01;51.88
61484;BME280;47349;55.640;37.692;2023-03-23T13:36:51;98592.44;;;12.00;52.06
61484;BME280;47349;55.640;37.692;2023-03-23T13:42:56;98588.75;;;11.95;52.52
61484;BME280;47349;55.640;37.692;2023-03-23T13:50:50;98598.03;;;11.79;52.98
61484;BME280;47349;55.640;37.692;2023-03-23T13:53:47;98595.38;;;11.72;53.10
61484;BME280;47349;55.640;37.692;2023-03-23T13:56:40;98597.22;;;11.72;53.40
61484;BME280;47349;55.640;37.692;2023-03-23T13:59:54;98599.09;;;11.58;53.78
61484;BME280;47349;55.640;37.692;2023-03-23T14:02:39;98588.38;;;11.58;54.19
61484;BME280;47349;55.640;37.692;2023-03-23T14:06:33;98586.34;;;11.47;54.20
61484;BME280;47349;55.640;37.692;2023-03-23T14:12:03;98598.31;;;11.51;54.60
61484;BME280;47349;55.640;37.692;2023-03-23T14:15:44;98579.09;;;11.47;54.64
61484;BME280;47349;55.640;37.692;2023-03-23T14:19:23;98579.53;;;11.38;54.98
61484;BME280;47349;55.640;37.692;2023-03-23T14:22:54;98573.13;;;11.39;55.39
61484;BME280;47349;55.640;37.692;2023-03-23T14:25:31;98567.53;;;11.40;55.72
61484;BME280;47349;55.640;37.692;2023-03-23T14:28:26;98553.31;;;11.40;56.36
61484;BME280;47349;55.640;37.692;2023-03-23T14:31:34;98559.28;;;11.35;56.34
61484;BME280;47349;55.640;37.692;2023-03-23T14:34:32;98565.28;;;11.30;57.04
61484;BME280;47349;55.640;37.692;2023-03-23T14:37:32;98563.25;;;11.19;57.29
61484;BME280;47349;55.640;37.692;2023-03-23T14:40:22;98565.50;;;11.16;57.58
61484;BME280;47349;55.640;37.692;2023-03-23T14:43:14;98554.78;;;11.09;57.50
61484;BME280;47349;55.640;37.692;2023-03-23T14:47:12;98550.25;;;11.03;58.24
61484;BME280;47349;55.640;37.692;2023-03-23T14:50:06;98560.78;;;10.98;58.66
61484;BME280;47349;55.640;37.692;2023-03-23T14:52:59;98552.94;;;11.03;58.04
61484;BME280;47349;55.640;37.692;2023-03-23T14:58:47;98538.69;;;10.89;58.68
61484;BME280;47349;55.640;37.692;2023-03-23T15:01:23;98533.97;;;10.85;58.47
61484;BME280;47349;55.640;37.692;2023-03-23T15:03:52;98535.00;;;10.84;58.66
61484;BME280;47349;55.640;37.692;2023-03-23T15:06:28;98553.75;;;10.84;59.53
61484;BME280;47349;55.640;37.692;2023-03-23T15:09:34;98542.63;;;10.80;59.02
61484;BME280;47349;55.640;37.692;2023-03-23T15:12:21;98542.81;;;10.78;59.55
61484;BME280;47349;55.640;37.692;2023-03-23T15:15:15;98542.19;;;10.76;59.21
61484;BME280;47349;55.640;37.692;2023-03-23T15:17:57;98535.59;;;10.72;59.45
61484;BME280;47349;55.640;37.692;2023-03-23T15:20:31;98548.97;;;10.72;59.20
61484;BME280;47349;55.640;37.692;2023-03-23T15:23:22;98538.88;;;10.68;59.54
61484;BME280;47349;55.640;37.692;2023-03-23T15:25:50;98544.84;;;10.63;59.78
61484;BME280;47349;55.640;37.692;2023-03-23T15:28:20;98533.91;;;10.58;59.29
61484;BME280;47349;55.640;37.692;2023-03-23T15:31:05;98530.03;;;10.54;59.54
61484;BME280;47349;55.640;37.692;2023-03-23T15:33:35;98530.19;;;10.52;59.90
61484;BME280;47349;55.640;37.692;2023-03-23T15:36:05;98531.44;;;10.50;59.35
61484;BME280;47349;55.640;37.692;2023-03-23T15:38:32;98528.94;;;10.48;59.50
61484;BME280;47349;55.640;37.692;2023-03-23T15:41:02;98534.31;;;10.48;60.14
61484;BME280;47349;55.640;37.692;2023-03-23T15:43:35;98537.19;;;10.40;59.99
61484;BME280;47349;55.640;37.692;2023-03-23T15:46:05;98536.16;;;10.48;60.76
61484;BME280;47349;55.640;37.692;2023-03-23T15:48:51;98532.28;;;10.50;60.64
61484;BME280;47349;55.640;37.692;2023-03-23T15:51:28;98525.47;;;10.54;60.82
61484;BME280;47349;55.640;37.692;2023-03-23T15:53:56;98527.53;;;10.52;60.65
61484;BME280;47349;55.640;37.692;2023-03-23T15:56:23;98527.53;;;10.46;60.58
61484;BME280;47349;55.640;37.692;2023-03-23T15:58:50;98529.16;;;10.47;60.39
61484;BME280;47349;55.640;37.692;2023-03-23T16:01:31;98529.56;;;10.44;60.79
61484;BME280;47349;55.640;37.692;2023-03-23T16:06:34;98519.47;;;10.39;60.97